createdAt,value
2017-10-23T00:01:46.840Z,9.57
2017-10-23T00:04:14.939Z,8.13
2017-10-23T00:06:43.046Z,9.90
2017-10-23T00:09:11.151Z,7.57
2017-10-23T00:11:39.356Z,9.20
2017-10-23T00:14:13.186Z,9.50
2017-10-23T00:16:42.058Z,7.10
2017-10-23T00:19:10.198Z,7.17
2017-10-23T00:21:38.286Z,6.70
2017-10-23T00:24:06.394Z,7.50
2017-10-23T00:26:34.511Z,7.57
2017-10-23T00:29:02.594Z,8.53
2017-10-23T00:31:30.697Z,8.07
2017-10-23T00:33:58.788Z,7.60
2017-10-23T00:36:26.889Z,9.30
2017-10-23T00:38:55.778Z,8.07
2017-10-23T00:41:25.621Z,8.67
2017-10-23T00:43:53.752Z,8.17
2017-10-23T00:46:21.857Z,8.20
2017-10-23T00:48:49.948Z,8.67
2017-10-23T00:51:18.034Z,11.55
2017-10-23T00:53:46.150Z,10.40
2017-10-23T00:56:19.877Z,7.97
2017-10-23T00:58:47.977Z,9.30
2017-10-23T01:01:16.073Z,9.40
2017-10-23T01:03:44.161Z,7.30
2017-10-23T01:06:12.259Z,11.03
2017-10-23T01:08:41.108Z,7.63
2017-10-23T01:11:09.198Z,7.50
2017-10-23T01:13:37.278Z,6.73
2017-10-23T01:16:05.382Z,6.60
2017-10-23T01:18:33.527Z,6.80
2017-10-23T01:21:01.609Z,7.80
2017-10-23T01:23:30.458Z,7.53
2017-10-23T01:25:58.547Z,7.23
2017-10-23T01:28:27.412Z,6.40
2017-10-23T01:30:56.266Z,7.00
2017-10-23T01:33:24.366Z,7.80
2017-10-23T01:35:52.441Z,9.77
2017-10-23T01:41:23.015Z,7.37
2017-10-23T01:43:51.109Z,7.90
2017-10-23T01:49:22.490Z,8.40
2017-10-23T01:51:50.596Z,12.03
2017-10-23T01:54:29.292Z,7.47
2017-10-23T01:56:57.401Z,8.93
2017-10-23T01:59:25.499Z,9.40
2017-10-23T02:01:53.612Z,7.00
2017-10-23T02:04:21.718Z,9.00
2017-10-23T02:06:49.822Z,10.20
2017-10-23T02:09:17.914Z,6.67
2017-10-23T02:11:46.018Z,10.00
2017-10-23T02:14:14.119Z,6.73
2017-10-23T02:16:42.994Z,9.73
2017-10-23T02:19:11.869Z,6.23
2017-10-23T02:21:39.959Z,7.13
2017-10-23T02:24:08.064Z,8.87
2017-10-23T02:26:36.160Z,7.87
2017-10-23T02:29:05.048Z,8.37
2017-10-23T02:31:33.140Z,7.63
2017-10-23T02:37:01.894Z,7.97
2017-10-23T02:39:29.996Z,8.93
2017-10-23T02:42:00.766Z,9.60
2017-10-23T02:44:28.863Z,15.23
2017-10-23T02:46:57.719Z,9.23
2017-10-23T02:49:25.826Z,9.30
2017-10-23T02:51:53.910Z,12.07
2017-10-23T02:54:22.039Z,11.17
2017-10-23T02:56:50.147Z,9.20
2017-10-23T02:59:19.043Z,10.40
2017-10-23T03:01:47.919Z,10.30
2017-10-23T03:04:16.012Z,10.40
2017-10-23T03:06:44.126Z,15.73
2017-10-23T03:09:13.003Z,13.00
2017-10-23T03:11:41.874Z,13.47
2017-10-23T03:14:10.759Z,14.33
2017-10-23T03:16:40.321Z,13.83
2017-10-23T03:19:08.409Z,15.53
2017-10-23T03:21:37.446Z,14.23
2017-10-23T03:24:05.553Z,12.07
2017-10-23T03:26:33.691Z,15.30
2017-10-23T03:29:02.602Z,13.80
2017-10-23T03:31:32.213Z,13.57
2017-10-23T03:34:00.333Z,14.47
2017-10-23T03:36:29.038Z,12.53
2017-10-23T03:38:57.123Z,11.43
2017-10-23T03:41:26.815Z,10.77
2017-10-23T03:43:54.901Z,12.27
2017-10-23T03:46:23.031Z,9.37
2017-10-23T03:48:55.327Z,10.53
2017-10-23T03:54:21.073Z,9.57
2017-10-23T03:57:03.146Z,11.40
2017-10-23T03:59:31.285Z,11.80
2017-10-23T04:01:59.467Z,11.80
2017-10-23T04:04:27.567Z,11.27
2017-10-23T04:06:59.780Z,11.73
2017-10-23T04:09:27.915Z,11.67
2017-10-23T04:11:56.110Z,8.87
2017-10-23T04:14:31.747Z,9.20
2017-10-23T04:16:59.848Z,8.60
2017-10-23T04:19:27.948Z,8.40
2017-10-23T04:21:56.175Z,8.20
2017-10-23T04:24:25.157Z,9.87
2017-10-23T04:27:00.292Z,9.43
2017-10-23T04:29:29.568Z,11.00
2017-10-23T04:31:59.639Z,9.50
2017-10-23T04:34:29.297Z,8.97
2017-10-23T04:36:58.645Z,9.20
2017-10-23T04:39:36.278Z,11.17
2017-10-23T04:42:05.294Z,11.87
2017-10-23T04:44:36.489Z,10.57
2017-10-23T04:47:04.664Z,11.20
2017-10-23T04:49:32.809Z,10.00
2017-10-23T04:52:00.891Z,11.33
2017-10-23T04:54:29.080Z,9.70
2017-10-23T04:56:57.194Z,10.00
2017-10-23T04:59:25.299Z,9.90
2017-10-23T05:01:53.420Z,11.83
2017-10-23T05:04:21.552Z,11.57
2017-10-23T05:06:49.634Z,9.67
2017-10-23T05:09:17.734Z,13.60
2017-10-23T05:11:46.612Z,11.27
2017-10-23T05:14:15.507Z,11.10
2017-10-23T05:16:43.603Z,11.03
2017-10-23T05:19:11.799Z,10.70
2017-10-23T05:21:39.925Z,11.40
2017-10-23T05:24:08.037Z,11.23
2017-10-23T05:26:36.131Z,9.90
2017-10-23T05:29:04.270Z,10.87
2017-10-23T05:31:32.371Z,11.57
2017-10-23T05:34:02.062Z,13.57
2017-10-23T05:36:30.947Z,14.23
2017-10-23T05:38:59.068Z,13.90
2017-10-23T05:41:30.275Z,9.80
2017-10-23T05:43:59.270Z,11.47
2017-10-23T05:46:27.385Z,11.67
2017-10-23T05:48:55.509Z,14.00
2017-10-23T05:51:23.631Z,13.00
2017-10-23T05:53:52.578Z,13.73
2017-10-23T05:56:20.710Z,14.73
2017-10-23T05:58:48.848Z,15.37
2017-10-23T06:01:18.991Z,14.17
2017-10-23T06:03:47.106Z,12.40
2017-10-23T06:06:16.006Z,17.00
2017-10-23T06:08:44.130Z,17.97
2017-10-23T06:11:12.251Z,16.50
2017-10-23T06:13:40.373Z,15.20
2017-10-23T06:16:10.044Z,16.00
2017-10-23T06:18:41.795Z,15.27
2017-10-23T06:21:11.776Z,16.43
2017-10-23T06:23:40.478Z,16.43
2017-10-23T06:26:09.407Z,15.20
2017-10-23T06:28:49.563Z,16.53
2017-10-23T06:31:21.207Z,13.90
2017-10-23T06:33:49.348Z,13.63
2017-10-23T06:36:18.382Z,17.93
2017-10-23T06:38:47.098Z,14.67
2017-10-23T06:41:15.257Z,13.30
2017-10-23T06:43:43.358Z,16.30
2017-10-23T06:46:11.473Z,20.17
2017-10-23T06:48:39.580Z,16.43
2017-10-23T06:51:07.718Z,15.80
2017-10-23T06:53:35.850Z,14.60
2017-10-23T06:56:05.017Z,18.63
2017-10-23T06:58:33.933Z,16.30
2017-10-23T07:01:02.441Z,16.17
2017-10-23T07:03:30.554Z,17.60
2017-10-23T07:05:59.437Z,16.17
2017-10-23T07:08:27.591Z,15.53
2017-10-23T07:10:55.720Z,18.20
2017-10-23T07:13:23.847Z,15.57
2017-10-23T07:15:55.071Z,19.90
2017-10-23T07:18:23.958Z,16.37
2017-10-23T07:20:52.067Z,19.17
2017-10-23T07:23:20.397Z,16.37
2017-10-23T07:25:48.728Z,12.67
2017-10-23T07:28:18.958Z,13.90
2017-10-23T07:30:49.697Z,16.50
2017-10-23T07:33:18.040Z,15.60
2017-10-23T07:35:46.550Z,13.73
2017-10-23T07:38:15.082Z,12.83
2017-10-23T07:40:43.569Z,17.20
2017-10-23T07:43:12.308Z,15.27
2017-10-23T07:45:40.679Z,16.03
2017-10-23T07:48:09.787Z,14.70
2017-10-23T07:50:38.032Z,16.23
2017-10-23T07:53:06.915Z,11.13
2017-10-23T07:55:35.011Z,16.00
2017-10-23T07:58:03.130Z,17.53
2017-10-23T08:00:31.986Z,12.50
2017-10-23T08:03:01.048Z,12.40
2017-10-23T08:05:29.147Z,16.73
2017-10-23T08:07:57.295Z,11.13
2017-10-23T08:10:26.200Z,11.30
2017-10-23T08:12:54.346Z,15.20
2017-10-23T08:15:22.514Z,15.10
2017-10-23T08:17:52.028Z,13.47
2017-10-23T08:20:20.201Z,11.80
2017-10-23T08:22:48.353Z,14.80
2017-10-23T08:25:16.480Z,16.27
2017-10-23T08:27:44.609Z,18.20
2017-10-23T08:30:12.727Z,15.40
2017-10-23T08:32:41.778Z,15.47
2017-10-23T08:35:09.884Z,13.13
2017-10-23T08:37:38.746Z,13.30
2017-10-23T08:40:07.619Z,12.47
2017-10-23T08:42:35.864Z,14.77
2017-10-23T08:45:04.067Z,12.87
2017-10-23T08:47:32.914Z,15.90
2017-10-23T08:50:01.033Z,15.17
2017-10-23T08:52:29.200Z,11.00
2017-10-23T08:54:57.324Z,10.87
2017-10-23T08:57:25.450Z,14.10
2017-10-23T08:59:54.354Z,12.90
2017-10-23T09:02:22.458Z,14.60
2017-10-23T09:04:52.623Z,13.83
2017-10-23T09:07:20.764Z,11.87
2017-10-23T09:09:49.762Z,12.40
2017-10-23T09:12:17.884Z,14.00
2017-10-23T09:14:46.858Z,13.43
2017-10-23T09:17:16.419Z,13.33
2017-10-23T09:19:44.532Z,16.20
2017-10-23T09:22:12.641Z,11.27
2017-10-23T09:24:40.757Z,11.33
2017-10-23T09:27:08.887Z,9.90
2017-10-23T09:29:37.007Z,10.00
2017-10-23T09:32:05.208Z,13.20
2017-10-23T09:34:34.063Z,8.93
2017-10-23T09:37:02.169Z,11.23
2017-10-23T09:39:30.295Z,8.67
2017-10-23T09:41:58.415Z,12.87
2017-10-23T09:44:39.844Z,9.70
2017-10-23T09:47:07.957Z,11.43
2017-10-23T09:49:36.880Z,11.67
2017-10-23T09:52:05.024Z,12.30
2017-10-23T09:54:33.135Z,8.47
2017-10-23T09:57:03.944Z,11.67
2017-10-23T09:59:32.039Z,8.10
2017-10-23T10:02:00.871Z,9.07
2017-10-23T10:04:28.984Z,10.73
2017-10-23T10:06:57.153Z,9.50
2017-10-23T10:09:25.268Z,9.40
2017-10-23T10:11:53.402Z,8.80
2017-10-23T10:14:26.939Z,9.43
2017-10-23T10:16:55.089Z,10.63
2017-10-23T10:19:23.245Z,7.73
2017-10-23T10:21:51.399Z,13.30
2017-10-23T10:24:19.518Z,9.87
2017-10-23T10:26:47.680Z,11.87
2017-10-23T10:29:19.946Z,9.43
2017-10-23T10:31:48.855Z,7.30
2017-10-23T10:34:18.158Z,10.30
2017-10-23T10:36:46.288Z,12.17
2017-10-23T10:39:15.200Z,15.03
2017-10-23T10:41:43.324Z,12.97
2017-10-23T10:44:11.466Z,10.33
2017-10-23T10:46:39.567Z,5.93
2017-10-23T10:49:07.679Z,11.10
2017-10-23T10:51:35.906Z,10.03
2017-10-23T10:54:04.043Z,12.20
2017-10-23T10:56:33.074Z,9.17
2017-10-23T10:59:01.726Z,9.90
2017-10-23T11:01:30.639Z,11.30
2017-10-23T11:03:58.833Z,8.90
2017-10-23T11:06:27.071Z,8.97
2017-10-23T11:08:55.162Z,8.43
2017-10-23T11:11:24.128Z,5.93
2017-10-23T11:13:56.266Z,7.70
2017-10-23T11:16:24.412Z,5.20
2017-10-23T11:18:52.534Z,6.40
2017-10-23T11:21:21.631Z,7.83
2017-10-23T11:23:49.741Z,5.87
2017-10-23T11:26:17.836Z,7.43
2017-10-23T11:28:50.654Z,6.03
2017-10-23T11:31:18.742Z,11.33
2017-10-23T11:33:46.875Z,4.60
2017-10-23T11:36:15.006Z,7.00
2017-10-23T11:38:43.138Z,4.60
2017-10-23T11:41:11.261Z,5.73
2017-10-23T11:43:40.123Z,4.30
2017-10-23T11:46:09.019Z,5.63
2017-10-23T11:48:37.123Z,2.77
2017-10-23T11:51:05.240Z,2.90
2017-10-23T11:53:33.360Z,4.63
2017-10-23T11:56:01.496Z,3.23
2017-10-23T11:58:29.927Z,3.20
2017-10-23T12:00:58.027Z,1.80
2017-10-23T12:03:26.158Z,2.43
2017-10-23T12:05:54.359Z,1.70
2017-10-23T12:08:23.265Z,3.23
2017-10-23T12:10:51.487Z,1.60
2017-10-23T12:13:19.578Z,4.57
2017-10-23T12:15:48.591Z,2.87
2017-10-23T12:18:16.691Z,1.37
2017-10-23T12:20:45.566Z,2.73
2017-10-23T12:23:14.444Z,4.33
2017-10-23T12:25:42.581Z,2.60
2017-10-23T12:28:10.681Z,3.97
2017-10-23T12:30:40.935Z,2.40
2017-10-23T12:33:09.050Z,2.53
2017-10-23T12:35:37.204Z,4.70
2017-10-23T12:38:07.019Z,3.13
2017-10-23T12:40:35.128Z,2.73
2017-10-23T12:43:03.249Z,3.37
2017-10-23T12:45:31.355Z,1.70
2017-10-23T12:48:00.110Z,1.73
2017-10-23T12:50:30.443Z,2.03
2017-10-23T12:52:59.058Z,3.30
2017-10-23T12:55:27.224Z,1.60
2017-10-23T12:57:55.342Z,1.83
2017-10-23T13:00:24.182Z,1.77
2017-10-23T13:02:53.107Z,4.40
2017-10-23T13:05:21.218Z,2.13
2017-10-23T13:07:49.385Z,1.87
2017-10-23T13:10:17.546Z,2.13
2017-10-23T13:12:45.689Z,3.40
2017-10-23T13:15:13.791Z,2.40
2017-10-23T13:17:41.908Z,2.60
2017-10-23T13:20:10.031Z,2.10
2017-10-23T13:22:38.141Z,3.83
2017-10-23T13:25:06.243Z,4.27
2017-10-23T13:27:34.375Z,2.90
2017-10-23T13:30:02.495Z,2.30
2017-10-23T13:32:30.673Z,3.63
2017-10-23T13:35:11.749Z,2.33
2017-10-23T13:37:39.840Z,1.90
2017-10-23T13:40:09.634Z,2.20
2017-10-23T13:42:38.509Z,3.00
2017-10-23T13:45:06.609Z,2.30
2017-10-23T13:47:34.722Z,1.97
2017-10-23T13:50:03.588Z,2.47
2017-10-23T13:52:31.736Z,3.43
2017-10-23T13:55:01.904Z,3.30
2017-10-23T13:57:30.027Z,2.10
2017-10-23T13:59:58.113Z,2.40
2017-10-23T14:02:26.222Z,2.10
2017-10-23T14:04:55.121Z,3.00
2017-10-23T14:07:23.252Z,5.37
2017-10-23T14:09:52.135Z,3.57
2017-10-23T14:12:32.223Z,2.60
2017-10-23T14:15:00.305Z,2.70
2017-10-23T14:20:29.308Z,2.33
2017-10-23T14:22:58.627Z,2.40
2017-10-23T14:25:31.126Z,2.97
2017-10-23T14:27:59.326Z,4.93
2017-10-23T14:30:27.418Z,3.20
2017-10-23T14:32:55.523Z,3.37
2017-10-23T14:35:24.379Z,5.70
2017-10-23T14:37:53.307Z,3.23
2017-10-23T14:40:22.403Z,2.90
2017-10-23T14:42:50.680Z,2.47
2017-10-23T14:45:19.539Z,2.60
2017-10-23T14:47:48.633Z,3.30
2017-10-23T14:50:18.026Z,2.73
2017-10-23T14:52:46.934Z,4.70
2017-10-23T14:55:15.098Z,5.53
2017-10-23T14:57:43.251Z,4.90
2017-10-23T15:00:11.387Z,4.10
2017-10-23T15:02:45.871Z,3.60
2017-10-23T15:05:14.019Z,3.00
2017-10-23T15:07:42.153Z,3.00
2017-10-23T15:10:17.343Z,3.03
2017-10-23T15:12:49.781Z,3.30
2017-10-23T15:15:17.900Z,5.27
2017-10-23T15:17:47.039Z,3.43
2017-10-23T15:20:16.184Z,3.40
2017-10-23T15:22:44.791Z,3.23
2017-10-23T15:28:23.859Z,3.90
2017-10-23T15:43:25.651Z,5.63
2017-10-23T15:45:53.750Z,5.30
2017-10-23T15:48:21.836Z,3.17
2017-10-23T15:50:49.984Z,2.80
2017-10-23T15:53:18.103Z,3.13
2017-10-23T15:55:47.233Z,3.40
2017-10-23T15:58:15.349Z,3.30
2017-10-23T16:00:43.491Z,4.10
2017-10-23T16:03:11.611Z,3.90
2017-10-23T16:05:39.772Z,4.67
2017-10-23T16:08:07.970Z,3.63
2017-10-23T16:10:36.098Z,3.77
2017-10-23T16:13:04.178Z,4.17
2017-10-23T16:15:32.564Z,4.03
2017-10-23T16:18:00.710Z,4.43
2017-10-23T16:20:28.868Z,5.00
2017-10-23T16:22:56.983Z,4.67
2017-10-23T16:25:25.297Z,4.97
2017-10-23T16:27:53.644Z,3.83
2017-10-23T16:30:21.814Z,4.07
2017-10-23T16:32:51.843Z,3.50
2017-10-23T16:35:19.989Z,4.10
2017-10-23T16:37:48.093Z,4.60
2017-10-23T16:40:16.232Z,4.07
2017-10-23T16:42:44.884Z,4.80
2017-10-23T16:45:12.986Z,4.30
2017-10-23T16:47:41.164Z,4.63
2017-10-23T16:50:09.322Z,5.77
2017-10-23T16:52:38.143Z,5.20
2017-10-23T16:55:06.241Z,5.03
2017-10-23T16:57:34.363Z,5.53
2017-10-23T17:00:02.974Z,5.63
2017-10-23T17:02:32.179Z,5.37
2017-10-23T17:05:00.279Z,5.33
2017-10-23T17:07:28.497Z,6.10
2017-10-23T17:09:56.660Z,6.60
2017-10-23T17:12:24.942Z,6.77
2017-10-23T17:14:53.122Z,7.00
2017-10-23T17:17:22.504Z,6.17
2017-10-23T17:19:51.416Z,6.10
2017-10-23T17:22:19.530Z,6.07
2017-10-23T17:24:47.706Z,6.00
2017-10-23T17:27:15.862Z,6.40
2017-10-23T17:29:43.967Z,7.60
2017-10-23T17:32:12.130Z,7.10
2017-10-23T17:34:41.042Z,7.23
2017-10-23T17:37:09.204Z,7.10
2017-10-23T17:39:37.411Z,6.93
2017-10-23T17:45:15.750Z,8.43
2017-10-23T17:48:04.868Z,7.67
2017-10-23T17:50:35.634Z,9.73
2017-10-23T17:53:03.793Z,7.70
2017-10-23T17:55:32.671Z,7.27
2017-10-23T17:58:00.783Z,7.03
2017-10-23T18:00:29.790Z,7.43
2017-10-23T18:02:57.982Z,7.47
2017-10-23T18:05:26.373Z,8.03
2017-10-23T18:07:57.567Z,7.93
2017-10-23T18:10:32.350Z,8.33
2017-10-23T18:13:00.514Z,8.23
2017-10-23T18:15:28.795Z,8.57
2017-10-23T18:17:57.008Z,8.43
2017-10-23T18:20:26.018Z,8.13
2017-10-23T18:22:54.137Z,7.80
2017-10-23T18:25:23.811Z,7.20
2017-10-23T18:27:52.061Z,8.00
2017-10-23T18:30:20.150Z,7.37
2017-10-23T18:32:48.369Z,8.77
2017-10-23T18:35:16.445Z,8.70
2017-10-23T18:37:45.336Z,8.30
2017-10-23T18:40:34.926Z,7.47
2017-10-23T18:43:03.806Z,13.47
2017-10-23T18:45:32.062Z,7.70
2017-10-23T18:48:00.163Z,7.30
2017-10-23T18:50:28.286Z,7.20
2017-10-23T18:52:56.429Z,8.77
2017-10-23T18:55:24.531Z,7.07
2017-10-23T18:57:52.734Z,7.90
2017-10-23T19:00:20.838Z,7.27
2017-10-23T19:02:48.942Z,7.73
2017-10-23T19:05:17.077Z,7.13
2017-10-23T19:07:45.938Z,7.30
2017-10-23T19:10:20.482Z,7.70
2017-10-23T19:12:48.590Z,8.80
2017-10-23T19:15:16.712Z,7.77
2017-10-23T19:17:44.783Z,8.00
2017-10-23T19:20:12.882Z,7.83
2017-10-23T19:22:41.062Z,7.53
2017-10-23T19:25:09.420Z,8.57
2017-10-23T19:30:31.891Z,7.30
2017-10-23T19:33:05.766Z,6.57
2017-10-23T19:35:34.228Z,7.90
2017-10-23T19:38:03.067Z,7.70
2017-10-23T19:40:31.190Z,6.97
2017-10-23T19:43:00.237Z,8.63
2017-10-23T19:45:28.321Z,7.67
2017-10-23T19:47:56.434Z,8.50
2017-10-23T19:50:24.531Z,7.90
2017-10-23T19:52:53.614Z,7.10
2017-10-23T19:55:21.702Z,7.43
2017-10-23T19:57:49.787Z,7.40
2017-10-23T20:00:18.523Z,8.60
2017-10-23T20:02:47.381Z,7.80
2017-10-23T20:05:16.241Z,7.90
2017-10-23T20:07:44.341Z,9.10
2017-10-23T20:10:12.449Z,9.40
2017-10-23T20:12:41.523Z,9.27
2017-10-23T20:15:09.633Z,10.00
2017-10-23T20:17:38.585Z,10.57
2017-10-23T20:20:07.461Z,10.33
2017-10-23T20:22:36.309Z,10.67
2017-10-23T20:25:04.413Z,9.80
2017-10-23T20:27:32.501Z,10.53
2017-10-23T20:30:00.605Z,14.70
2017-10-23T20:32:29.485Z,11.17
2017-10-23T20:35:05.422Z,10.80
2017-10-23T20:37:33.606Z,11.97
2017-10-23T20:40:01.694Z,11.57
2017-10-23T20:42:30.617Z,11.60
2017-10-23T20:45:20.578Z,10.53
2017-10-23T20:47:49.117Z,10.60
2017-10-23T20:50:17.225Z,10.80
2017-10-23T20:52:45.333Z,12.97
2017-10-23T20:55:13.436Z,10.90
2017-10-23T20:57:41.542Z,12.03
2017-10-23T21:00:09.651Z,12.37
2017-10-23T21:02:37.759Z,12.53
2017-10-23T21:05:05.882Z,11.80
2017-10-23T21:07:33.998Z,13.10
2017-10-23T21:10:02.116Z,12.33
2017-10-23T21:12:30.226Z,11.53
2017-10-23T21:15:01.407Z,12.73
2017-10-23T21:17:29.524Z,12.03
2017-10-23T21:19:57.631Z,12.40
2017-10-23T21:22:25.742Z,12.97
2017-10-23T21:27:55.673Z,13.30
2017-10-23T21:30:23.787Z,11.40
2017-10-23T21:32:51.895Z,12.57
2017-10-23T21:35:24.550Z,13.20
2017-10-23T21:37:52.642Z,13.57
2017-10-23T21:40:30.574Z,13.53
2017-10-23T21:42:58.693Z,13.00
2017-10-23T21:45:26.816Z,12.00
2017-10-23T21:48:12.476Z,12.13
2017-10-23T21:50:41.541Z,12.47
2017-10-23T21:53:09.652Z,12.00
2017-10-23T21:55:37.761Z,11.80
2017-10-23T21:58:05.874Z,11.57
2017-10-23T22:00:53.997Z,15.23
2017-10-23T22:03:22.110Z,14.37
2017-10-23T22:05:50.993Z,13.87
2017-10-23T22:08:19.870Z,12.00
2017-10-23T22:13:49.461Z,13.00
2017-10-23T22:16:18.330Z,12.40
2017-10-23T22:18:47.207Z,13.53
2017-10-23T22:21:16.069Z,13.40
2017-10-23T22:23:44.202Z,13.27
2017-10-23T22:26:17.948Z,14.53
2017-10-23T22:28:46.790Z,13.40
2017-10-23T22:31:14.891Z,12.50
2017-10-23T22:33:43.006Z,13.37
2017-10-23T22:36:11.102Z,13.50
2017-10-23T22:38:39.217Z,14.83
2017-10-23T22:41:07.313Z,13.47
2017-10-23T22:43:35.426Z,13.40
2017-10-23T22:46:03.568Z,13.73
2017-10-23T22:48:31.653Z,15.53
2017-10-23T22:51:00.539Z,12.80
2017-10-23T22:53:28.633Z,13.67
2017-10-23T22:55:56.741Z,14.83
2017-10-23T22:58:25.619Z,15.00
2017-10-23T23:00:54.517Z,15.10
2017-10-23T23:03:23.404Z,15.17
2017-10-23T23:05:51.512Z,15.47
2017-10-23T23:08:19.610Z,15.30
2017-10-23T23:10:47.939Z,13.20
2017-10-23T23:13:16.820Z,16.73
2017-10-23T23:15:45.699Z,15.20
2017-10-23T23:18:13.788Z,16.10
2017-10-23T23:20:41.901Z,14.97
2017-10-23T23:23:10.046Z,15.37
2017-10-23T23:25:38.161Z,14.83
2017-10-23T23:28:06.234Z,14.43
2017-10-23T23:30:34.350Z,16.40
2017-10-23T23:33:02.449Z,17.07
2017-10-23T23:35:30.769Z,15.37
2017-10-23T23:37:58.971Z,15.17
2017-10-23T23:40:27.150Z,16.90
2017-10-23T23:42:55.269Z,14.60
2017-10-23T23:45:23.620Z,14.43
2017-10-23T23:47:51.732Z,14.30
2017-10-23T23:50:20.611Z,15.53
2017-10-23T23:52:49.478Z,13.87
2017-10-23T23:55:18.366Z,15.40
2017-10-23T23:57:46.469Z,13.30
